.
WxDataArchive / Data Records for 2010-08-11
2010-08-10 August 2010 2010-08-12

Data Records for Wednesday, 11 August 2010

Time	Temp	Chill	HIndex	Humid	Dewpt	 Wind 	HiWind	WindDir	Rain 	Barom 
-----	----	-----	------	-----	-----	------	------	-------	-----	----- 
00:00	79.6	79.6	82.7	74	70.6	0	1	90	0.00	29.919 
00:05	79.6	79.6	82.6	73	70.2	1	3	90	0.00	29.919 
00:10	79.6	79.6	82.7	74	70.6	0	2	90	0.00	29.919 
00:15	79.4	79.4	82.4	74	70.4	0	1	90	0.00	29.918 
00:20	79.4	79.4	82.5	75	70.8	0	1	90	0.00	29.918 
00:25	79.2	79.2	82.1	75	70.6	0	1	90	0.00	29.918 
00:30	79.0	79.0	81.8	75	70.4	0	1	90	0.00	29.919 
00:35	79.0	79.0	81.9	76	70.8	0	1	90	0.00	29.919 
00:40	78.8	78.8	81.5	76	70.6	0	1	90	0.00	29.919 
00:45	78.8	78.8	81.5	76	70.6	0	1	90	0.00	29.918 
00:50	78.6	78.6	81.2	77	70.8	0	0	---	0.00	29.918 
00:55	78.5	78.5	81.1	77	70.7	0	0	---	0.00	29.918 
01:00	78.3	78.3	80.7	77	70.5	0	0	---	0.00	29.915 
01:05	78.3	78.3	80.8	78	70.9	0	0	---	0.00	29.915 
01:10	78.1	78.1	80.4	78	70.7	0	1	90	0.00	29.915 
01:15	77.9	77.9	80.1	79	70.8	0	1	90	0.00	29.907 
01:20	77.9	77.9	80.1	79	70.8	0	1	90	0.00	29.907 
01:25	77.7	77.7	79.8	80	71.0	0	1	90	0.00	29.907 
01:30	77.7	77.7	79.8	80	71.0	0	1	90	0.00	29.904 
01:35	77.6	77.6	79.6	81	71.3	0	1	90	0.00	29.904 
01:40	77.4	77.4	79.2	81	71.1	0	1	90	0.00	29.904 
01:45	77.4	77.4	79.2	81	71.1	0	1	90	0.00	29.902 
01:50	77.2	77.2	78.9	81	70.9	0	0	---	0.00	29.902 
01:55	77.0	77.0	78.5	82	71.1	0	0	---	0.00	29.902 
02:00	77.0	77.0	78.5	82	71.1	0	0	---	0.00	29.900 
02:05	76.8	76.8	78.1	83	71.2	0	0	---	0.00	29.900 
02:10	76.7	76.7	77.9	83	71.1	0	0	---	0.00	29.900 
02:15	76.5	76.5	77.5	84	71.3	0	0	---	0.00	29.899 
02:20	76.3	76.3	77.2	84	71.1	0	0	---	0.00	29.899 
02:25	76.1	76.1	76.8	84	70.9	0	0	---	0.00	29.899 
02:30	76.0	76.0	76.6	85	71.2	0	0	---	0.00	29.903 
02:35	75.8	75.8	76.2	85	71.0	0	0	---	0.00	29.903 
02:40	75.8	75.8	76.1	86	71.3	0	0	---	0.00	29.903 
02:45	75.6	75.6	75.8	86	71.1	0	0	---	0.00	29.903 
02:50	75.6	75.6	75.6	87	71.4	0	0	---	0.00	29.903 
02:55	75.6	75.6	75.6	87	71.4	0	1	90	0.00	29.903 
03:00	75.8	75.8	76.0	87	71.6	0	1	90	0.00	29.889 
03:05	75.8	75.8	76.1	86	71.3	0	0	---	0.00	29.889 
03:10	75.8	75.8	76.1	86	71.3	0	0	---	0.00	29.889 
03:15	75.6	75.6	75.8	86	71.1	0	0	---	0.00	29.892 
03:20	75.6	75.6	75.6	87	71.4	0	0	---	0.00	29.892 
03:25	75.4	75.4	75.3	87	71.2	0	0	---	0.00	29.892 
03:30	75.4	75.4	75.3	87	71.2	0	0	---	0.00	29.888 
03:35	75.4	75.4	75.3	87	71.2	0	1	90	0.00	29.888 
03:40	75.4	75.4	75.3	87	71.2	0	1	90	0.00	29.888 
03:45	75.4	75.4	75.3	87	71.2	0	1	90	0.00	29.884 
03:50	75.3	75.3	75.1	87	71.2	0	0	---	0.00	29.884 
03:55	75.3	75.3	75.1	87	71.2	0	0	---	0.00	29.884 
04:00	75.3	75.3	75.1	87	71.2	0	1	90	0.00	29.885 
04:05	75.3	75.3	75.0	88	71.5	0	1	90	0.00	29.885 
04:10	75.3	75.3	75.0	88	71.5	0	1	90	0.00	29.885 
04:15	75.3	75.3	75.0	88	71.5	0	0	---	0.00	29.880 
04:20	75.3	75.3	75.0	88	71.5	0	2	90	0.00	29.880 
04:25	75.3	75.3	75.0	88	71.5	0	0	---	0.00	29.880 
04:30	75.3	75.3	75.0	88	71.5	0	0	---	0.00	29.876 
04:35	75.1	75.1	74.6	88	71.3	0	0	---	0.00	29.876 
04:40	74.9	74.9	74.9	88	71.1	0	0	---	0.00	29.876 
04:45	74.9	74.9	74.9	88	71.1	0	0	---	0.00	29.881 
04:50	74.7	74.7	74.7	88	70.9	0	0	---	0.00	29.881 
04:55	74.7	74.7	74.7	89	71.2	0	0	---	0.00	29.881 
05:00	74.6	74.6	74.6	89	71.1	0	0	---	0.00	29.887 
05:05	74.6	74.6	74.6	89	71.1	0	0	---	0.00	29.887 
05:10	74.4	74.4	74.4	90	71.3	0	0	---	0.00	29.887 
05:15	74.4	74.4	74.4	90	71.3	0	0	---	0.00	29.882 
05:20	74.4	74.4	74.4	90	71.3	0	0	---	0.00	29.882 
05:25	74.4	74.4	74.4	90	71.3	0	0	---	0.00	29.882 
05:30	74.4	74.4	74.4	90	71.3	0	0	---	0.00	29.880 
05:35	74.4	74.4	74.4	90	71.3	0	0	---	0.00	29.880 
05:40	74.2	74.2	74.2	90	71.1	0	0	---	0.00	29.880 
05:45	74.2	74.2	74.2	90	71.1	0	0	---	0.00	29.877 
05:50	74.0	74.0	74.0	91	71.2	0	0	---	0.00	29.877 
05:55	74.0	74.0	74.0	91	71.2	0	0	---	0.00	29.877 
06:00	73.9	73.9	73.9	91	71.1	0	0	---	0.00	29.877 
06:05	73.9	73.9	73.9	91	71.1	0	0	---	0.00	29.877 
06:10	73.7	73.7	73.7	91	70.9	0	0	---	0.00	29.877 
06:15	73.5	73.5	73.5	91	70.7	0	0	---	0.00	29.880 
06:20	73.5	73.5	73.5	91	70.7	0	0	---	0.00	29.880 
06:25	73.3	73.3	73.3	92	70.8	0	0	---	0.00	29.880 
06:30	73.5	73.5	73.5	92	71.0	0	0	---	0.00	29.888 
06:35	73.3	73.3	73.3	92	70.8	0	0	---	0.00	29.888 
06:40	73.3	73.3	73.3	92	70.8	0	0	---	0.00	29.888 
06:45	73.3	73.3	73.3	92	70.8	0	0	---	0.00	29.892 
06:50	73.3	73.3	73.3	92	70.8	0	0	---	0.00	29.892 
06:55	73.2	73.2	73.2	92	70.7	0	0	---	0.00	29.892 
07:00	73.3	73.3	73.3	93	71.1	0	0	---	0.00	29.891 
07:05	73.3	73.3	73.3	93	71.1	0	0	---	0.00	29.891 
07:10	73.3	73.3	73.3	93	71.1	0	0	---	0.00	29.891 
07:15	73.3	73.3	73.3	93	71.1	0	0	---	0.00	29.887 
07:20	73.5	73.5	73.5	93	71.3	0	0	---	0.00	29.887 
07:25	73.7	73.7	73.7	93	71.5	0	0	---	0.00	29.887 
07:30	73.9	73.9	73.9	93	71.7	0	0	---	0.00	29.877 
07:35	74.0	74.0	74.0	94	72.2	0	0	---	0.00	29.877 
07:40	74.4	74.4	74.4	94	72.6	0	0	---	0.00	29.877 
07:45	74.7	74.7	74.7	93	72.5	0	0	---	0.00	29.880 
07:50	75.1	75.1	73.8	93	72.9	0	0	---	0.00	29.880 
07:55	75.4	75.4	74.7	91	72.6	1	3	90	0.00	29.880 
08:00	75.8	75.8	75.6	90	72.6	0	1	90	0.00	29.886 
08:05	76.1	76.1	76.4	89	72.6	0	1	90	0.00	29.886 
08:10	76.7	76.7	77.7	88	72.9	0	1	90	0.00	29.886 
08:15	76.8	76.8	77.9	87	72.6	0	1	90	0.00	29.888 
08:20	77.0	77.0	78.3	87	72.8	0	0	---	0.00	29.888 
08:25	77.2	77.2	78.7	87	73.0	0	0	---	0.00	29.888 
08:30	77.2	77.2	78.7	87	73.0	0	1	90	0.00	29.888 
08:35	77.2	77.2	78.7	87	73.0	0	0	---	0.00	29.888 
08:40	77.0	77.0	78.3	87	72.8	0	1	90	0.00	29.888 
08:45	77.0	77.0	78.3	87	72.8	0	1	90	0.00	29.902 
08:50	76.8	76.8	77.9	88	73.0	0	1	90	0.00	29.902 
08:55	76.8	76.8	77.9	88	73.0	0	1	90	0.00	29.902 
09:00	76.7	76.7	77.7	88	72.9	0	1	90	0.00	29.903 
09:05	76.5	76.5	77.2	89	73.0	0	1	90	0.00	29.903 
09:10	76.5	76.5	77.2	89	73.0	0	1	90	0.00	29.903 
09:15	76.7	76.7	77.6	89	73.2	0	2	90	0.00	29.891 
09:20	76.8	76.8	77.8	89	73.3	0	2	90	0.00	29.891 
09:25	77.0	77.0	78.2	90	73.8	0	1	135	0.00	29.891 
09:30	77.0	77.0	78.2	90	73.8	0	2	135	0.00	29.887 
09:35	77.2	77.2	78.6	91	74.4	1	3	90	0.00	29.887 
09:40	77.2	77.2	78.6	91	74.4	0	3	90	0.00	29.887 
09:45	77.4	77.4	79.0	92	74.9	0	1	90	0.00	29.877 
09:50	77.7	77.7	79.8	91	74.9	0	2	90	0.00	29.877 
09:55	77.9	77.9	80.2	89	74.4	1	3	248	0.00	29.877 
10:00	77.7	77.7	79.8	87	73.5	0	3	68	0.00	29.872 
10:05	77.4	77.4	79.1	87	73.2	1	3	270	0.00	29.872 
10:10	77.0	77.0	78.4	86	72.5	1	5	248	0.00	29.872 
10:15	76.7	76.7	77.8	85	71.8	1	5	248	0.00	29.888 
10:20	76.3	76.3	77.1	85	71.4	2	6	270	0.00	29.888 
10:25	76.1	76.1	76.7	85	71.2	1	4	270	0.00	29.888 
10:30	75.8	75.8	76.1	86	71.3	2	6	270	0.00	29.896 
10:35	75.6	75.6	75.6	87	71.4	1	4	248	0.00	29.896 
10:40	75.4	75.4	75.1	88	71.6	0	3	248	0.00	29.896 
10:45	75.3	75.3	75.0	88	71.5	2	6	270	0.00	29.892 
10:50	75.1	75.1	74.4	89	71.6	2	5	270	0.01	29.892 
10:55	74.6	74.6	74.6	89	71.1	1	4	270	0.11	29.892 
11:00	74.2	74.2	74.2	90	71.1	1	3	270	0.09	29.898 
11:05	74.0	74.0	74.0	91	71.2	1	3	270	0.02	29.898 
11:10	73.7	73.7	73.7	92	71.2	2	5	270	0.00	29.898 
11:15	73.5	73.5	73.5	92	71.0	1	2	248	0.01	29.897 
11:20	73.5	73.5	73.5	92	71.0	0	3	248	0.00	29.897 
11:25	73.5	73.5	73.5	93	71.3	0	2	248	0.01	29.897 
11:30	73.5	73.5	73.5	93	71.3	0	0	---	0.00	29.891 
11:35	73.5	73.5	73.5	93	71.3	0	0	---	0.01	29.891 
11:40	73.5	73.5	73.5	94	71.7	0	0	---	0.00	29.891 
11:45	73.5	73.5	73.5	94	71.7	0	1	248	0.01	29.898 
11:50	73.3	73.3	73.3	94	71.5	0	1	248	0.00	29.898 
11:55	73.3	73.3	73.3	94	71.5	0	1	248	0.01	29.898 
12:00	73.3	73.3	73.3	94	71.5	0	1	248	0.00	29.895 
12:05	73.3	73.3	73.3	94	71.5	0	2	248	0.00	29.895 
12:10	73.3	73.3	73.3	94	71.5	0	2	248	0.01	29.895 
12:15	73.3	73.3	73.3	95	71.8	0	3	248	0.00	29.912 
12:20	73.5	73.5	73.5	95	72.0	0	2	248	0.00	29.912 
12:25	73.5	73.5	73.5	95	72.0	0	1	248	0.00	29.912 
12:30	73.7	73.7	73.7	95	72.2	0	1	248	0.00	29.898 
12:35	74.0	74.0	74.0	95	72.5	0	1	248	0.00	29.898 
12:40	74.4	74.4	74.4	95	72.9	0	1	248	0.00	29.898 
12:45	74.6	74.6	74.6	95	73.1	0	2	248	0.00	29.895 
12:50	75.1	75.1	73.2	96	73.9	0	1	248	0.00	29.895 
12:55	75.8	75.8	75.0	95	74.3	1	2	248	0.00	29.895 
13:00	76.5	76.5	76.7	95	75.0	0	2	180	0.00	29.898 
13:05	76.7	76.7	77.2	94	74.8	0	2	180	0.00	29.898 
13:10	77.0	77.0	78.0	94	75.1	0	1	202	0.00	29.898 
13:15	77.4	77.4	79.0	93	75.2	0	3	270	0.00	29.893 
13:20	77.6	77.6	79.5	92	75.1	0	1	292	0.00	29.893 
13:25	78.1	78.1	80.8	91	75.2	0	1	292	0.00	29.893 
13:30	78.6	78.6	81.9	89	75.1	0	1	292	0.00	29.878 
13:35	79.4	79.4	83.7	87	75.2	0	1	292	0.00	29.878 
13:40	79.8	79.8	84.2	83	74.2	0	3	292	0.00	29.878 
13:45	80.9	80.9	86.8	83	75.2	0	1	292	0.00	29.872 
13:50	81.6	81.6	87.8	80	74.8	0	1	292	0.00	29.872 
13:55	82.6	82.6	90.0	79	75.4	0	1	292	0.00	29.872 
14:00	83.4	83.4	92.4	80	76.6	0	1	292	0.00	29.857 
14:05	83.6	83.6	91.2	75	74.8	0	2	292	0.00	29.857 
14:10	83.6	83.6	90.5	73	74.0	1	3	292	0.00	29.857 
14:15	84.0	84.0	91.5	73	74.4	0	2	292	0.00	29.846 
14:20	84.5	84.5	93.0	74	75.3	1	4	112	0.00	29.846 
14:25	84.7	84.7	92.0	70	73.8	1	3	112	0.00	29.846 
14:30	85.1	85.1	92.9	70	74.2	1	2	90	0.00	29.843 
14:35	85.7	85.7	94.3	70	74.8	1	2	112	0.00	29.843 
14:40	85.9	85.9	95.7	72	75.8	1	5	68	0.00	29.843 
14:45	86.1	86.1	93.2	65	72.9	1	3	68	0.00	29.837 
14:50	86.1	86.1	92.4	63	72.0	1	3	90	0.00	29.837 
14:55	86.5	86.5	93.7	64	72.8	0	2	90	0.00	29.837 
15:00	87.0	87.0	93.9	62	72.4	1	3	90	0.00	29.830 
15:05	87.2	87.2	94.8	63	73.0	1	4	270	0.00	29.830 
15:10	87.6	87.6	96.1	64	73.9	0	3	270	0.00	29.830 
15:15	87.8	87.8	96.6	64	74.1	0	2	90	0.00	29.826 
15:20	88.0	88.0	97.1	64	74.3	1	3	90	0.00	29.826 
15:25	88.2	88.2	97.0	63	74.0	1	3	90	0.00	29.826 
15:30	88.2	88.2	96.5	62	73.5	1	3	112	0.00	29.814 
15:35	88.2	88.2	97.0	63	74.0	1	4	112	0.00	29.814 
15:40	88.2	88.2	96.5	62	73.5	1	4	270	0.00	29.814 
15:45	88.4	88.4	97.5	63	74.2	1	5	248	0.00	29.809 
15:50	88.4	88.4	97.0	62	73.7	2	4	270	0.00	29.809 
15:55	88.4	88.4	97.0	62	73.7	2	4	270	0.00	29.809 
16:00	88.8	88.8	98.5	63	74.5	1	2	270	0.00	29.808 
16:05	89.0	89.0	97.9	61	73.8	1	4	270	0.00	29.808 
16:10	88.8	88.8	97.9	62	74.1	2	5	270	0.00	29.808 
16:15	88.4	88.4	97.5	63	74.2	1	3	270	0.00	29.808 
16:20	88.2	88.2	97.5	64	74.4	1	4	248	0.00	29.808 
16:25	88.6	88.6	97.5	62	73.9	1	3	248	0.00	29.808 
16:30	88.8	88.8	97.9	62	74.1	1	3	270	0.00	29.797 
16:35	88.4	88.4	97.5	63	74.2	1	2	270	0.00	29.797 
16:40	88.2	88.2	98.0	65	74.9	1	2	270	0.00	29.797 
16:45	88.4	88.4	98.0	64	74.6	1	2	270	0.00	29.790 
16:50	88.6	88.6	97.5	62	73.9	1	3	270	0.00	29.790 
16:55	88.8	88.8	98.5	63	74.5	1	2	270	0.00	29.790 
17:00	88.4	88.4	97.5	63	74.2	1	3	270	0.00	29.788 
17:05	88.0	88.0	96.6	63	73.8	0	2	270	0.00	29.788 
17:10	88.0	88.0	98.1	66	75.2	0	3	270	0.00	29.788 
17:15	88.2	88.2	98.0	65	74.9	0	2	270	0.00	29.787 
17:20	88.0	88.0	96.1	62	73.3	2	5	90	0.00	29.787 
17:25	87.8	87.8	95.6	62	73.1	2	4	270	0.00	29.787 
17:30	87.8	87.8	96.1	63	73.6	1	3	270	0.00	29.791 
17:35	87.8	87.8	96.1	63	73.6	1	3	270	0.00	29.791 
17:40	87.8	87.8	96.1	63	73.6	2	4	270	0.00	29.791 
17:45	88.0	88.0	97.1	64	74.3	1	3	270	0.00	29.785 
17:50	88.6	88.6	97.0	61	73.4	2	5	270	0.00	29.785 
17:55	89.0	89.0	97.4	60	73.3	1	3	292	0.00	29.785 
18:00	88.8	88.8	97.4	61	73.6	2	4	292	0.00	29.781 
18:05	88.8	88.8	97.4	61	73.6	1	4	292	0.00	29.781 
18:10	88.4	88.4	96.5	61	73.2	2	4	292	0.00	29.781 
18:15	87.8	87.8	95.6	62	73.1	1	3	315	0.00	29.783 
18:20	87.6	87.6	95.7	63	73.4	0	3	292	0.00	29.783 
18:25	87.2	87.2	94.3	62	72.6	0	1	292	0.00	29.783 
18:30	87.0	87.0	94.3	63	72.8	1	4	292	0.00	29.783 
18:35	86.7	86.7	93.7	63	72.6	0	2	292	0.00	29.783 
18:40	86.5	86.5	93.3	63	72.4	1	4	270	0.00	29.783 
18:45	86.5	86.5	93.7	64	72.8	0	1	270	0.00	29.789 
18:50	86.5	86.5	94.1	65	73.3	0	2	270	0.00	29.789 
18:55	86.3	86.3	94.5	67	74.0	0	3	248	0.00	29.789 
19:00	85.9	85.9	94.0	68	74.1	1	5	90	0.00	29.794 
19:05	85.1	85.1	92.6	69	73.8	3	7	90	0.00	29.794 
19:10	84.5	84.5	91.6	70	73.6	1	3	90	0.00	29.794 
19:15	84.1	84.1	91.0	71	73.7	0	3	90	0.00	29.796 
19:20	84.0	84.0	91.1	72	74.0	0	3	90	0.00	29.796 
19:25	83.6	83.6	90.2	72	73.6	0	1	90	0.00	29.796 
19:30	83.4	83.4	90.1	73	73.8	1	3	90	0.00	29.800 
19:35	82.8	82.8	88.8	73	73.2	2	4	68	0.00	29.800 
19:40	82.4	82.4	88.2	74	73.3	1	4	135	0.00	29.800 
19:45	81.8	81.8	87.1	75	73.1	1	2	90	0.00	29.803 
19:50	81.6	81.6	86.9	76	73.3	1	4	90	0.00	29.803 
19:55	81.2	81.2	86.1	76	72.9	0	3	90	0.00	29.803 
20:00	81.1	81.1	86.1	77	73.2	0	1	90	0.00	29.805 
20:05	80.9	80.9	85.7	77	73.0	0	2	90	0.00	29.805 
20:10	80.7	80.7	85.2	77	72.8	0	1	90	0.00	29.805 
20:15	80.7	80.7	85.4	78	73.2	0	1	90	0.00	29.802 
20:20	80.5	80.5	85.1	79	73.4	0	1	90	0.00	29.802 
20:25	80.3	80.3	84.7	79	73.2	0	0	---	0.00	29.802 
20:30	80.1	80.1	84.3	79	73.0	0	2	90	0.00	29.808 
20:35	79.9	79.9	83.6	77	72.0	1	3	90	0.00	29.808 
20:40	79.8	79.8	83.6	78	72.3	0	1	90	0.00	29.808 
20:45	79.8	79.8	83.7	79	72.7	0	0	---	0.00	29.810 
20:50	79.6	79.6	83.3	79	72.5	0	0	---	0.00	29.810 
20:55	79.4	79.4	83.0	80	72.7	0	0	---	0.00	29.810 
21:00	79.2	79.2	82.7	81	72.8	0	0	---	0.00	29.809 
21:05	79.0	79.0	82.3	81	72.7	0	0	---	0.00	29.809 
21:10	78.8	78.8	81.9	82	72.8	0	1	90	0.00	29.809 
21:15	78.6	78.6	81.5	82	72.6	0	0	---	0.00	29.809 
21:20	78.5	78.5	81.4	83	72.9	0	0	---	0.00	29.809 
21:25	78.1	78.1	80.6	83	72.5	0	0	---	0.00	29.809 
21:30	77.9	77.9	80.2	83	72.3	0	0	---	0.00	29.810 
21:35	77.7	77.7	79.8	84	72.5	0	0	---	0.00	29.810 
21:40	77.6	77.6	79.6	84	72.4	0	0	---	0.00	29.810 
21:45	77.4	77.4	79.2	85	72.5	0	0	---	0.00	29.815 
21:50	77.2	77.2	78.8	85	72.3	0	0	---	0.00	29.815 
21:55	77.0	77.0	78.4	86	72.5	0	0	---	0.00	29.815 
22:00	76.8	76.8	78.0	86	72.3	0	0	---	0.00	29.815 
22:05	76.7	76.7	77.7	87	72.5	0	0	---	0.00	29.815 
22:10	76.5	76.5	77.3	87	72.3	0	0	---	0.00	29.815 
22:15	76.3	76.3	76.8	88	72.5	0	0	---	0.00	29.818 
22:20	76.1	76.1	76.5	88	72.3	0	0	---	0.00	29.818 
22:25	76.0	76.0	76.3	88	72.2	0	0	---	0.00	29.818 
22:30	76.0	76.0	76.2	89	72.5	0	0	---	0.00	29.819 
22:35	75.8	75.8	75.8	89	72.3	0	0	---	0.00	29.819 
22:40	75.6	75.6	75.4	89	72.1	0	0	---	0.00	29.819 
22:45	75.4	75.4	74.8	90	72.3	0	0	---	0.00	29.820 
22:50	75.4	75.4	74.8	90	72.3	0	0	---	0.00	29.820 
22:55	75.3	75.3	74.7	90	72.2	0	0	---	0.00	29.820 
23:00	75.1	75.1	74.3	90	72.0	0	0	---	0.00	29.821 
23:05	75.1	75.1	74.3	90	72.0	0	0	---	0.00	29.821 
23:10	74.9	74.9	74.9	91	72.1	0	0	---	0.00	29.821 
23:15	74.9	74.9	74.9	91	72.1	0	0	---	0.00	29.819 
23:20	74.7	74.7	74.7	91	71.9	0	0	---	0.00	29.819 
23:25	74.6	74.6	74.6	91	71.8	0	0	---	0.00	29.819 
23:30	74.6	74.6	74.6	91	71.8	0	0	---	0.00	29.817 
23:35	74.4	74.4	74.4	92	71.9	0	0	---	0.00	29.817 
23:40	74.4	74.4	74.4	92	71.9	0	0	---	0.00	29.817 
23:45	74.2	74.2	74.2	92	71.7	0	0	---	0.00	29.821 
23:50	74.2	74.2	74.2	92	71.7	0	0	---	0.00	29.821 
23:55	74.0	74.0	74.0	92	71.5	0	0	---	0.00	29.821 

CoCoRaHS
IN-AL-39
A2 Web Hosting
Creative Commons License
GoDaddy
search engine by freefind advanced

loaded 2018-11-16 01:28:31 • last modified 2010-11-18 10:43:29
Privacy PolicyDisclaimer
• wx.awcolley.com is powered by PmWiki v.2002016 •
• all content (unless otherwise noted) © 2018 A W Colley